createdAt,value
2019-01-12T00:01:58.351Z,5.13
2019-01-12T00:04:24.656Z,5.11
2019-01-12T00:06:50.981Z,5.11
2019-01-12T00:09:17.301Z,5.10
2019-01-12T00:11:43.611Z,5.08
2019-01-12T00:14:09.913Z,5.06
2019-01-12T00:16:36.222Z,5.05
2019-01-12T00:19:02.551Z,5.05
2019-01-12T00:21:28.851Z,5.04
2019-01-12T00:23:55.176Z,5.06
2019-01-12T00:26:21.499Z,5.05
2019-01-12T00:28:47.823Z,5.01
2019-01-12T00:31:14.116Z,5.04
2019-01-12T00:33:40.452Z,5.03
2019-01-12T00:36:06.786Z,5.03
2019-01-12T00:38:33.087Z,5.03
2019-01-12T00:40:59.396Z,5.02
2019-01-12T00:43:25.704Z,5.00
2019-01-12T00:45:52.010Z,5.00
2019-01-12T00:48:18.340Z,4.98
2019-01-12T00:50:44.630Z,4.96
2019-01-12T00:53:10.934Z,4.94
2019-01-12T00:55:37.236Z,4.93
2019-01-12T00:58:03.548Z,4.95
2019-01-12T01:00:29.861Z,4.92
2019-01-12T01:02:56.175Z,4.91
2019-01-12T01:05:22.485Z,4.91
2019-01-12T01:07:48.784Z,4.89
2019-01-12T01:10:15.087Z,4.87
2019-01-12T01:12:41.407Z,4.87
2019-01-12T01:15:07.721Z,4.86
2019-01-12T01:17:34.082Z,4.80
2019-01-12T01:20:00.350Z,4.83
2019-01-12T01:22:26.648Z,4.82
2019-01-12T01:24:52.951Z,4.82
2019-01-12T01:27:19.261Z,4.80
2019-01-12T01:29:45.604Z,4.81
2019-01-12T01:32:11.857Z,4.79
2019-01-12T01:34:38.162Z,4.77
2019-01-12T01:37:04.459Z,4.75
2019-01-12T01:39:30.761Z,4.73
2019-01-12T01:41:57.098Z,4.73
2019-01-12T01:44:23.410Z,4.70
2019-01-12T01:46:49.709Z,4.69
2019-01-12T01:49:16.019Z,4.63
2019-01-12T01:51:42.309Z,4.62
2019-01-12T01:54:08.601Z,4.59
2019-01-12T01:56:34.903Z,4.57
2019-01-12T01:59:01.209Z,4.57
2019-01-12T02:01:27.514Z,4.57
2019-01-12T02:03:53.813Z,4.58
2019-01-12T02:06:20.132Z,4.56
2019-01-12T02:08:46.444Z,4.54
2019-01-12T02:11:12.748Z,4.54
2019-01-12T02:13:39.050Z,4.53
2019-01-12T02:16:05.359Z,4.52
2019-01-12T02:18:31.662Z,4.51
2019-01-12T02:20:57.983Z,4.51
2019-01-12T02:23:24.303Z,4.49
2019-01-12T02:25:50.597Z,4.52
2019-01-12T02:28:16.892Z,4.53
2019-01-12T02:30:43.206Z,4.54
2019-01-12T02:33:09.522Z,4.52
2019-01-12T02:35:35.822Z,4.52
2019-01-12T02:38:02.139Z,4.53
2019-01-12T02:40:28.446Z,4.51
2019-01-12T02:42:54.766Z,4.50
2019-01-12T02:45:21.133Z,4.52
2019-01-12T02:47:47.402Z,4.51
2019-01-12T02:50:13.721Z,4.50
2019-01-12T02:52:40.005Z,4.50
2019-01-12T02:55:08.903Z,4.49
2019-01-12T02:57:32.613Z,4.48
2019-01-12T02:59:58.926Z,4.47
2019-01-12T03:02:25.223Z,4.48
2019-01-12T03:04:51.518Z,4.49
2019-01-12T03:07:17.822Z,4.48
2019-01-12T03:09:44.133Z,4.48
2019-01-12T03:12:10.463Z,4.46
2019-01-12T03:14:36.758Z,4.45
2019-01-12T03:17:03.066Z,4.44
2019-01-12T03:19:29.369Z,4.43
2019-01-12T03:21:55.671Z,4.43
2019-01-12T03:24:21.982Z,4.42
2019-01-12T03:26:48.279Z,4.43
2019-01-12T03:29:14.605Z,4.42
2019-01-12T03:31:40.916Z,4.43
2019-01-12T03:34:07.205Z,4.42
2019-01-12T03:36:33.509Z,4.41
2019-01-12T03:38:59.820Z,4.40
2019-01-12T03:41:26.166Z,4.39
2019-01-12T03:43:52.467Z,4.39
2019-01-12T03:46:18.762Z,4.39
2019-01-12T03:48:45.054Z,4.39
2019-01-12T03:51:11.347Z,4.39
2019-01-12T03:53:37.649Z,4.37
2019-01-12T03:56:03.960Z,4.36
2019-01-12T03:58:30.260Z,4.36
2019-01-12T04:00:56.559Z,4.37
2019-01-12T04:03:22.870Z,4.36
2019-01-12T04:05:49.205Z,4.36
2019-01-12T04:08:15.496Z,4.34
2019-01-12T04:10:41.796Z,4.32
2019-01-12T04:13:08.115Z,4.31
2019-01-12T04:15:34.418Z,4.30
2019-01-12T04:18:00.736Z,4.28
2019-01-12T04:20:27.028Z,4.31
2019-01-12T04:22:53.327Z,4.28
2019-01-12T04:25:19.627Z,4.27
2019-01-12T04:27:45.918Z,4.26
2019-01-12T04:30:12.211Z,4.27
2019-01-12T04:32:38.515Z,4.28
2019-01-12T04:35:04.830Z,4.27
2019-01-12T04:37:31.129Z,4.26
2019-01-12T04:39:57.429Z,4.26
2019-01-12T04:42:23.727Z,4.26
2019-01-12T04:44:50.036Z,4.26
2019-01-12T04:47:16.333Z,4.24
2019-01-12T04:49:42.628Z,4.23
2019-01-12T04:52:08.942Z,4.19
2019-01-12T04:54:35.244Z,4.23
2019-01-12T04:57:01.543Z,4.22
2019-01-12T04:59:27.854Z,4.22
2019-01-12T05:01:54.157Z,4.21
2019-01-12T05:04:20.467Z,4.19
2019-01-12T05:06:46.791Z,4.19
2019-01-12T05:09:13.088Z,4.18
2019-01-12T05:11:39.441Z,4.18
2019-01-12T05:14:05.754Z,4.18
2019-01-12T05:16:32.066Z,4.18
2019-01-12T05:18:58.359Z,4.18
2019-01-12T05:21:24.690Z,4.19
2019-01-12T05:23:50.998Z,4.19
2019-01-12T05:26:17.296Z,4.19
2019-01-12T05:28:43.597Z,4.19
2019-01-12T05:31:09.892Z,4.19
2019-01-12T05:33:36.202Z,4.17
2019-01-12T05:36:02.604Z,4.20
2019-01-12T05:38:28.917Z,4.20
2019-01-12T05:40:55.223Z,4.19
2019-01-12T05:43:21.684Z,4.20
2019-01-12T05:45:47.998Z,4.20
2019-01-12T05:48:14.344Z,4.18
2019-01-12T05:50:40.632Z,4.19
2019-01-12T05:53:06.948Z,4.17
2019-01-12T05:55:33.252Z,4.18
2019-01-12T05:57:59.556Z,4.17
2019-01-12T06:00:25.945Z,4.16
2019-01-12T06:02:52.262Z,4.17
2019-01-12T06:05:18.557Z,4.18
2019-01-12T06:07:44.860Z,4.18
2019-01-12T06:10:11.152Z,4.16
2019-01-12T06:12:37.458Z,4.16
2019-01-12T06:15:03.772Z,4.17
2019-01-12T06:17:30.090Z,4.18
2019-01-12T06:19:56.392Z,4.18
2019-01-12T06:22:22.694Z,4.18
2019-01-12T06:24:49.008Z,4.18
2019-01-12T06:27:15.329Z,4.17
2019-01-12T06:29:41.634Z,4.18
2019-01-12T06:32:07.928Z,4.17
2019-01-12T06:34:34.225Z,4.17
2019-01-12T06:37:00.528Z,4.14
2019-01-12T06:39:26.815Z,4.15
2019-01-12T06:41:53.134Z,4.16
2019-01-12T06:44:19.434Z,4.15
2019-01-12T06:46:45.747Z,4.17
2019-01-12T06:49:12.058Z,4.17
2019-01-12T06:51:38.367Z,4.17
2019-01-12T06:54:04.680Z,4.17
2019-01-12T06:56:30.994Z,4.17
2019-01-12T06:58:57.293Z,4.16
2019-01-12T07:01:23.603Z,4.18
2019-01-12T07:03:49.899Z,4.17
2019-01-12T07:06:16.214Z,4.19
2019-01-12T07:08:42.515Z,4.20
2019-01-12T07:11:08.868Z,4.20
2019-01-12T07:13:35.165Z,4.23
2019-01-12T07:16:01.471Z,4.22
2019-01-12T07:18:27.823Z,4.21
2019-01-12T07:20:54.141Z,4.48
2019-01-12T07:23:20.460Z,4.79
2019-01-12T07:25:46.763Z,5.00
2019-01-12T07:28:13.075Z,5.10
2019-01-12T07:30:39.374Z,5.10
2019-01-12T07:33:05.703Z,5.09
2019-01-12T07:35:32.016Z,5.08
2019-01-12T07:37:58.317Z,5.09
2019-01-12T07:40:24.945Z,5.10
2019-01-12T07:42:51.234Z,5.10
2019-01-12T07:45:17.547Z,5.11
2019-01-12T07:47:43.871Z,5.13
2019-01-12T07:50:10.179Z,5.14
2019-01-12T07:52:36.489Z,5.17
2019-01-12T07:55:02.803Z,5.14
2019-01-12T07:57:29.105Z,5.22
2019-01-12T07:59:55.407Z,5.23
2019-01-12T08:02:21.702Z,5.25
2019-01-12T08:04:48.026Z,5.26
2019-01-12T08:07:14.325Z,5.22
2019-01-12T08:09:40.673Z,5.14
2019-01-12T08:12:06.943Z,5.09
2019-01-12T08:14:33.254Z,5.10
2019-01-12T08:16:59.550Z,5.23
2019-01-12T08:19:25.874Z,5.37
2019-01-12T08:21:52.199Z,5.49
2019-01-12T08:24:18.509Z,5.53
2019-01-12T08:26:44.824Z,5.58
2019-01-12T08:29:11.124Z,5.66
2019-01-12T08:31:37.439Z,6.24
2019-01-12T08:34:03.758Z,7.03
2019-01-12T08:36:30.057Z,7.77
2019-01-12T08:38:56.355Z,8.50
2019-01-12T08:41:22.649Z,9.13
2019-01-12T08:43:48.998Z,9.71
2019-01-12T08:46:15.338Z,10.24
2019-01-12T08:48:41.587Z,10.75
2019-01-12T08:51:07.895Z,10.86
2019-01-12T08:53:34.211Z,10.53
2019-01-12T08:56:00.511Z,10.03
2019-01-12T08:58:27.020Z,9.68
2019-01-12T09:00:53.320Z,9.47
2019-01-12T09:03:19.627Z,9.41
2019-01-12T09:05:45.943Z,9.35
2019-01-12T09:08:12.244Z,9.28
2019-01-12T09:10:38.627Z,9.20
2019-01-12T09:13:04.934Z,9.12
2019-01-12T09:15:31.267Z,9.03
2019-01-12T09:17:57.569Z,8.94
2019-01-12T09:20:23.880Z,8.89
2019-01-12T09:22:50.201Z,8.87
2019-01-12T09:25:16.492Z,8.84
2019-01-12T09:27:42.814Z,9.03
2019-01-12T09:30:09.115Z,9.64
2019-01-12T09:32:35.412Z,10.31
2019-01-12T09:35:01.737Z,10.95
2019-01-12T09:37:28.057Z,11.55
2019-01-12T09:39:54.352Z,12.06
2019-01-12T09:42:20.653Z,12.52
2019-01-12T09:44:46.942Z,12.95
2019-01-12T09:47:13.245Z,13.32
2019-01-12T09:49:39.560Z,13.66
2019-01-12T09:52:05.871Z,13.96
2019-01-12T09:54:32.180Z,14.24
2019-01-12T09:56:58.477Z,14.53
2019-01-12T09:59:24.793Z,14.81
2019-01-12T10:01:51.114Z,14.99
2019-01-12T10:04:17.421Z,15.02
2019-01-12T10:06:43.746Z,14.79
2019-01-12T10:09:10.055Z,14.60
2019-01-12T10:11:36.353Z,14.73
2019-01-12T10:14:02.677Z,15.00
2019-01-12T10:16:28.992Z,14.97
2019-01-12T10:18:55.297Z,15.17
2019-01-12T10:21:21.628Z,15.25
2019-01-12T10:23:47.889Z,15.42
2019-01-12T10:26:14.190Z,15.59
2019-01-12T10:28:40.488Z,15.76
2019-01-12T10:31:06.805Z,16.06
2019-01-12T10:33:33.106Z,16.39
2019-01-12T10:35:59.409Z,16.65
2019-01-12T10:38:25.723Z,16.88
2019-01-12T10:40:52.242Z,17.07
2019-01-12T10:43:18.538Z,17.25
2019-01-12T10:45:44.852Z,17.45
2019-01-12T10:48:11.265Z,17.60
2019-01-12T10:50:37.534Z,17.71
2019-01-12T10:53:03.839Z,17.86
2019-01-12T10:55:30.149Z,17.99
2019-01-12T10:57:56.444Z,18.13
2019-01-12T11:00:22.852Z,18.29
2019-01-12T11:02:49.193Z,18.45
2019-01-12T11:05:15.494Z,18.41
2019-01-12T11:07:41.809Z,17.53
2019-01-12T11:10:08.104Z,17.63
2019-01-12T11:12:34.498Z,17.98
2019-01-12T11:15:00.771Z,18.32
2019-01-12T11:17:27.094Z,18.59
2019-01-12T11:19:53.967Z,18.69
2019-01-12T11:22:19.716Z,18.82
2019-01-12T11:31:31.578Z,17.58
2019-01-12T11:33:57.883Z,17.82
2019-01-12T11:36:24.230Z,17.96
2019-01-12T11:38:50.543Z,18.12
2019-01-12T11:41:16.841Z,18.26
2019-01-12T11:43:43.141Z,18.40
2019-01-12T11:46:09.451Z,18.53
2019-01-12T11:48:35.767Z,18.61
2019-01-12T11:51:02.080Z,18.65
2019-01-12T11:53:28.374Z,18.73
2019-01-12T11:55:54.712Z,18.81
2019-01-12T11:58:21.042Z,18.96
2019-01-12T12:00:47.365Z,19.10
2019-01-12T12:03:13.674Z,19.21
2019-01-12T12:05:40.016Z,19.29
2019-01-12T12:08:06.336Z,19.38
2019-01-12T12:10:32.636Z,19.41
2019-01-12T12:12:58.942Z,19.46
2019-01-12T12:15:25.231Z,19.50
2019-01-12T12:17:51.566Z,19.50
2019-01-12T12:20:17.867Z,19.47
2019-01-12T12:22:44.173Z,19.40
2019-01-12T12:25:10.487Z,19.39
2019-01-12T12:27:36.779Z,19.31
2019-01-12T12:30:07.089Z,19.24
2019-01-12T12:32:33.409Z,19.10
2019-01-12T12:34:59.716Z,19.12
2019-01-12T12:37:26.015Z,19.05
2019-01-12T12:39:52.314Z,19.00
2019-01-12T12:42:18.636Z,18.91
2019-01-12T12:44:44.945Z,18.90
2019-01-12T12:47:11.281Z,18.89
2019-01-12T12:49:37.623Z,18.90
2019-01-12T12:52:03.908Z,18.90
2019-01-12T12:54:30.226Z,18.87
2019-01-12T12:56:56.545Z,18.87
2019-01-12T12:59:22.856Z,18.81
2019-01-12T13:01:49.150Z,18.77
2019-01-12T13:04:15.467Z,18.73
2019-01-12T13:06:41.773Z,18.72
2019-01-12T13:09:08.090Z,18.68
2019-01-12T13:11:34.444Z,18.62
2019-01-12T13:14:00.749Z,18.51
2019-01-12T13:16:27.083Z,18.40
2019-01-12T13:18:53.362Z,18.27
2019-01-12T13:21:19.682Z,18.12
2019-01-12T13:23:46.022Z,17.99
2019-01-12T13:26:12.332Z,17.89
2019-01-12T13:28:38.647Z,17.79
2019-01-12T13:31:04.951Z,17.65
2019-01-12T13:33:31.243Z,17.52
2019-01-12T13:35:57.559Z,17.39
2019-01-12T13:38:23.875Z,17.26
2019-01-12T13:40:50.184Z,17.18
2019-01-12T13:43:16.478Z,17.08
2019-01-12T13:45:42.776Z,16.98
2019-01-12T13:48:09.092Z,16.90
2019-01-12T13:50:35.387Z,16.82
2019-01-12T13:53:01.686Z,16.73
2019-01-12T13:55:27.991Z,16.64
2019-01-12T13:57:54.302Z,16.67
2019-01-12T14:00:20.965Z,16.85
2019-01-12T14:02:47.227Z,16.74
2019-01-12T14:05:13.538Z,16.58
2019-01-12T14:07:39.851Z,16.40
2019-01-12T14:10:06.160Z,16.25
2019-01-12T14:12:32.498Z,16.11
2019-01-12T14:14:58.811Z,16.02
2019-01-12T14:17:25.109Z,15.89
2019-01-12T14:19:52.496Z,15.76
2019-01-12T14:22:17.727Z,15.65
2019-01-12T14:24:44.030Z,15.52
2019-01-12T14:27:10.324Z,15.36
2019-01-12T14:29:36.622Z,15.09
2019-01-12T14:32:02.930Z,14.90
2019-01-12T14:34:29.261Z,14.82
2019-01-12T14:36:55.585Z,14.78
2019-01-12T14:39:21.921Z,14.73
2019-01-12T14:41:48.210Z,14.65
2019-01-12T14:44:14.521Z,14.52
2019-01-12T14:46:40.826Z,14.39
2019-01-12T14:49:07.153Z,14.25
2019-01-12T14:51:33.467Z,14.19
2019-01-12T14:53:59.786Z,14.09
2019-01-12T14:56:26.097Z,14.00
2019-01-12T14:58:52.399Z,13.89
2019-01-12T15:01:18.718Z,13.76
2019-01-12T15:03:45.048Z,13.67
2019-01-12T15:06:11.358Z,13.58
2019-01-12T15:08:37.655Z,13.50
2019-01-12T15:11:03.965Z,13.40
2019-01-12T15:13:30.272Z,13.37
2019-01-12T15:15:56.558Z,13.25
2019-01-12T15:18:22.900Z,13.17
2019-01-12T15:20:49.216Z,13.10
2019-01-12T15:23:15.529Z,13.04
2019-01-12T15:25:41.834Z,12.99
2019-01-12T15:28:09.484Z,12.89
2019-01-12T15:30:34.465Z,12.84
2019-01-12T15:33:01.591Z,12.75
2019-01-12T15:35:27.912Z,12.59
2019-01-12T15:37:54.258Z,12.48
2019-01-12T15:40:20.569Z,12.46
2019-01-12T15:42:46.871Z,12.41
2019-01-12T15:45:13.204Z,12.38
2019-01-12T15:47:41.846Z,12.31
2019-01-12T15:50:08.177Z,12.29
2019-01-12T15:52:34.471Z,12.22
2019-01-12T15:55:00.768Z,12.14
2019-01-12T15:57:27.093Z,12.08
2019-01-12T15:59:53.384Z,12.04
2019-01-12T16:02:19.702Z,11.95
2019-01-12T16:04:46.002Z,11.92
2019-01-12T16:07:12.335Z,11.85
2019-01-12T16:09:38.642Z,11.82
2019-01-12T16:12:04.937Z,11.76
2019-01-12T16:14:31.243Z,11.68
2019-01-12T16:16:59.970Z,11.53
2019-01-12T16:19:26.305Z,11.52
2019-01-12T16:21:52.616Z,11.41
2019-01-12T16:24:18.927Z,11.32
2019-01-12T16:26:45.244Z,11.33
2019-01-12T16:29:11.572Z,11.39
2019-01-12T16:31:37.860Z,11.35
2019-01-12T16:34:04.160Z,11.27
2019-01-12T16:36:30.477Z,11.22
2019-01-12T16:38:56.777Z,11.16
2019-01-12T16:41:23.098Z,11.11
2019-01-12T16:43:49.388Z,11.05
2019-01-12T16:46:15.693Z,11.01
2019-01-12T16:48:43.125Z,10.95
2019-01-12T16:51:08.298Z,10.89
2019-01-12T16:53:34.596Z,10.87
2019-01-12T16:56:03.090Z,10.81
2019-01-12T16:58:30.578Z,10.76
2019-01-12T17:00:55.749Z,10.74
2019-01-12T17:03:22.069Z,10.64
2019-01-12T17:05:48.384Z,10.57
2019-01-12T17:08:14.686Z,10.47
2019-01-12T17:10:40.992Z,10.42
2019-01-12T17:13:07.282Z,10.40
2019-01-12T17:15:34.892Z,10.40
2019-01-12T17:17:59.924Z,10.38
2019-01-12T17:20:26.235Z,10.36
2019-01-12T17:22:52.553Z,10.33
2019-01-12T17:25:18.855Z,10.32
2019-01-12T17:27:45.223Z,10.28
2019-01-12T17:30:11.464Z,10.21
2019-01-12T17:32:37.766Z,10.20
2019-01-12T17:35:04.086Z,10.19
2019-01-12T17:37:30.399Z,10.16
2019-01-12T17:39:56.704Z,10.16
2019-01-12T17:42:23.015Z,10.11
2019-01-12T17:44:49.326Z,10.02
2019-01-12T17:47:15.643Z,10.01
2019-01-12T17:49:41.944Z,9.95
2019-01-12T17:52:08.235Z,9.87
2019-01-12T17:54:34.545Z,9.78
2019-01-12T17:57:00.853Z,9.76
2019-01-12T17:59:27.148Z,9.77
2019-01-12T18:01:53.448Z,9.84
2019-01-12T18:04:20.149Z,9.84
2019-01-12T18:06:46.457Z,9.84
2019-01-12T18:09:12.757Z,9.87
2019-01-12T18:11:39.059Z,9.83
2019-01-12T18:14:05.360Z,9.83
2019-01-12T18:16:31.670Z,9.76
2019-01-12T18:18:57.967Z,9.79
2019-01-12T18:21:24.278Z,9.80
2019-01-12T18:23:50.638Z,9.78
2019-01-12T18:26:16.942Z,9.79
2019-01-12T18:28:43.240Z,9.77
2019-01-12T18:31:09.555Z,9.75
2019-01-12T18:33:35.868Z,9.69
2019-01-12T18:36:01.953Z,9.62
2019-01-12T18:38:28.248Z,9.54
2019-01-12T18:40:54.555Z,9.47
2019-01-12T18:43:22.096Z,9.47
2019-01-12T18:45:47.345Z,9.47
2019-01-12T18:48:13.593Z,9.49
2019-01-12T18:50:39.896Z,9.50
2019-01-12T18:53:06.209Z,9.49
2019-01-12T18:55:32.558Z,9.51
2019-01-12T18:57:58.875Z,9.51
2019-01-12T19:00:25.193Z,9.50
2019-01-12T19:02:51.544Z,9.49
2019-01-12T19:05:17.807Z,9.46
2019-01-12T19:07:44.112Z,9.47
2019-01-12T19:10:10.417Z,9.45
2019-01-12T19:12:36.738Z,9.45
2019-01-12T19:15:03.035Z,9.44
2019-01-12T19:17:29.352Z,9.40
2019-01-12T19:19:55.664Z,9.32
2019-01-12T19:22:21.996Z,9.25
2019-01-12T19:24:48.290Z,9.15
2019-01-12T19:27:14.608Z,9.16
2019-01-12T19:29:40.913Z,9.21
2019-01-12T19:32:07.219Z,9.21
2019-01-12T19:34:33.530Z,9.22
2019-01-12T19:36:59.829Z,9.25
2019-01-12T19:39:26.152Z,9.22
2019-01-12T19:41:52.477Z,9.22
2019-01-12T19:44:18.744Z,9.20
2019-01-12T19:46:45.040Z,9.20
2019-01-12T19:49:11.346Z,9.21
2019-01-12T19:51:37.631Z,9.19
2019-01-12T19:54:03.929Z,9.17
2019-01-12T19:56:30.244Z,9.12
2019-01-12T19:58:56.549Z,9.09
2019-01-12T20:01:22.850Z,9.07
2019-01-12T20:03:49.170Z,9.08
2019-01-12T20:06:17.193Z,8.96
2019-01-12T20:08:41.787Z,8.83
2019-01-12T20:11:08.085Z,8.77
2019-01-12T20:13:34.400Z,8.79
2019-01-12T20:16:00.694Z,8.79
2019-01-12T20:18:27.012Z,8.80
2019-01-12T20:20:53.323Z,8.79
2019-01-12T20:23:19.620Z,8.81
2019-01-12T20:25:45.925Z,8.80
2019-01-12T20:28:12.229Z,8.82
2019-01-12T20:30:45.964Z,8.79
2019-01-12T20:33:12.271Z,8.77
2019-01-12T20:35:38.586Z,8.74
2019-01-12T20:38:04.884Z,8.73
2019-01-12T20:40:31.195Z,8.69
2019-01-12T20:42:57.507Z,8.67
2019-01-12T20:45:23.812Z,8.80
2019-01-12T20:47:50.119Z,8.53
2019-01-12T20:50:19.464Z,8.38
2019-01-12T20:52:43.067Z,8.67
2019-01-12T20:55:09.372Z,8.92
2019-01-12T20:57:35.688Z,8.97
2019-01-12T21:00:02.001Z,8.93
2019-01-12T21:02:28.298Z,8.89
2019-01-12T21:04:54.604Z,8.88
2019-01-12T21:07:20.923Z,8.90
2019-01-12T21:09:47.253Z,8.87
2019-01-12T21:12:13.549Z,8.86
2019-01-12T21:14:39.900Z,8.85
2019-01-12T21:17:06.182Z,8.85
2019-01-12T21:19:32.529Z,8.82
2019-01-12T21:21:58.850Z,8.83
2019-01-12T21:24:25.164Z,8.82
2019-01-12T21:26:51.431Z,8.80
2019-01-12T21:29:17.734Z,8.78
2019-01-12T21:31:44.046Z,8.68
2019-01-12T21:34:10.352Z,8.60
2019-01-12T21:36:36.645Z,8.53
2019-01-12T21:39:02.962Z,8.49
2019-01-12T21:41:29.265Z,8.53
2019-01-12T21:43:55.568Z,8.52
2019-01-12T21:46:21.878Z,8.56
2019-01-12T21:48:48.195Z,8.59
2019-01-12T21:51:14.494Z,8.57
2019-01-12T21:53:40.799Z,8.61
2019-01-12T21:56:07.091Z,8.63
2019-01-12T21:58:33.411Z,8.64
2019-01-12T22:00:59.714Z,8.63
2019-01-12T22:03:26.013Z,8.62
2019-01-12T22:05:52.322Z,8.60
2019-01-12T22:08:18.637Z,8.61
2019-01-12T22:10:47.466Z,8.62
2019-01-12T22:13:13.752Z,8.62
2019-01-12T22:15:40.064Z,8.56
2019-01-12T22:18:06.372Z,8.43
2019-01-12T22:20:32.709Z,8.33
2019-01-12T22:22:59.019Z,8.26
2019-01-12T22:25:25.317Z,8.24
2019-01-12T22:27:51.657Z,8.29
2019-01-12T22:30:17.975Z,8.36
2019-01-12T22:32:44.319Z,8.45
2019-01-12T22:35:10.644Z,8.44
2019-01-12T22:37:36.934Z,8.46
2019-01-12T22:40:03.232Z,8.45
2019-01-12T22:42:32.132Z,8.44
2019-01-12T22:44:58.437Z,8.43
2019-01-12T22:47:24.700Z,8.42
2019-01-12T22:49:51.007Z,8.38
2019-01-12T22:52:17.380Z,8.39
2019-01-12T22:54:43.681Z,8.40
2019-01-12T22:57:10.012Z,8.42
2019-01-12T22:59:39.843Z,8.40
2019-01-12T23:02:06.121Z,8.33
2019-01-12T23:04:34.600Z,8.23
2019-01-12T23:06:58.899Z,8.12
2019-01-12T23:09:28.281Z,8.03
2019-01-12T23:11:54.892Z,8.05
2019-01-12T23:14:21.142Z,8.11
2019-01-12T23:16:47.461Z,8.14
2019-01-12T23:19:13.763Z,8.20
2019-01-12T23:21:40.068Z,8.23
2019-01-12T23:24:06.387Z,8.25
2019-01-12T23:26:32.700Z,8.26
2019-01-12T23:28:59.009Z,8.26
2019-01-12T23:31:25.334Z,8.24
2019-01-12T23:33:51.639Z,8.24
2019-01-12T23:36:17.985Z,8.25
2019-01-12T23:38:44.304Z,8.26
2019-01-12T23:41:10.648Z,8.30
2019-01-12T23:43:36.957Z,8.30
2019-01-12T23:46:03.297Z,8.28
2019-01-12T23:48:29.608Z,8.18
2019-01-12T23:50:55.910Z,8.08
2019-01-12T23:53:22.239Z,7.97
2019-01-12T23:55:48.524Z,7.89
2019-01-12T23:58:14.825Z,7.96
